sensor_id;sensor_type;location;lat;lon;timestamp;temperature;humidity
68766;DHT22;55756;45.582;11.484;2022-11-15T00:01:53;9.30;85.40
68766;DHT22;55756;45.582;11.484;2022-11-15T00:04:37;9.20;85.40
68766;DHT22;55756;45.582;11.484;2022-11-15T00:07:22;9.20;85.40
68766;DHT22;55756;45.582;11.484;2022-11-15T00:10:06;9.20;85.50
68766;DHT22;55756;45.582;11.484;2022-11-15T00:12:50;9.20;85.40
68766;DHT22;55756;45.582;11.484;2022-11-15T00:15:36;9.20;85.40
68766;DHT22;55756;45.582;11.484;2022-11-15T00:18:20;9.20;85.40
68766;DHT22;55756;45.582;11.484;2022-11-15T00:21:07;9.20;85.40
68766;DHT22;55756;45.582;11.484;2022-11-15T00:23:53;9.10;85.40
68766;DHT22;55756;45.582;11.484;2022-11-15T00:26:37;9.10;85.40
68766;DHT22;55756;45.582;11.484;2022-11-15T00:29:21;9.10;85.30
68766;DHT22;55756;45.582;11.484;2022-11-15T00:32:07;9.00;85.20
68766;DHT22;55756;45.582;11.484;2022-11-15T00:34:50;9.00;85.10
68766;DHT22;55756;45.582;11.484;2022-11-15T00:37:35;9.00;85.30
68766;DHT22;55756;45.582;11.484;2022-11-15T00:40:19;9.00;85.20
68766;DHT22;55756;45.582;11.484;2022-11-15T00:43:03;9.00;85.30
68766;DHT22;55756;45.582;11.484;2022-11-15T00:45:47;8.90;85.20
68766;DHT22;55756;45.582;11.484;2022-11-15T00:48:31;8.90;85.20
68766;DHT22;55756;45.582;11.484;2022-11-15T00:51:15;8.80;84.80
68766;DHT22;55756;45.582;11.484;2022-11-15T00:54:01;8.70;84.50
68766;DHT22;55756;45.582;11.484;2022-11-15T00:56:45;8.60;84.60
68766;DHT22;55756;45.582;11.484;2022-11-15T00:59:29;8.60;84.60
68766;DHT22;55756;45.582;11.484;2022-11-15T01:02:13;8.60;84.90
68766;DHT22;55756;45.582;11.484;2022-11-15T01:04:57;8.60;85.50
68766;DHT22;55756;45.582;11.484;2022-11-15T01:07:42;8.50;85.70
68766;DHT22;55756;45.582;11.484;2022-11-15T01:10:26;8.60;85.50
68766;DHT22;55756;45.582;11.484;2022-11-15T01:13:11;8.50;85.80
68766;DHT22;55756;45.582;11.484;2022-11-15T01:15:55;8.50;85.60
68766;DHT22;55756;45.582;11.484;2022-11-15T01:18:39;8.40;85.70
68766;DHT22;55756;45.582;11.484;2022-11-15T01:21:24;8.40;85.50
68766;DHT22;55756;45.582;11.484;2022-11-15T01:24:12;8.40;85.40
68766;DHT22;55756;45.582;11.484;2022-11-15T01:26:57;8.40;85.50
68766;DHT22;55756;45.582;11.484;2022-11-15T01:29:41;8.40;85.40
68766;DHT22;55756;45.582;11.484;2022-11-15T01:32:25;8.40;85.80
68766;DHT22;55756;45.582;11.484;2022-11-15T01:35:09;8.40;85.70
68766;DHT22;55756;45.582;11.484;2022-11-15T01:37:53;8.50;85.60
68766;DHT22;55756;45.582;11.484;2022-11-15T01:40:38;8.50;85.60
68766;DHT22;55756;45.582;11.484;2022-11-15T01:43:27;8.40;85.60
68766;DHT22;55756;45.582;11.484;2022-11-15T01:46:31;8.30;85.80
68766;DHT22;55756;45.582;11.484;2022-11-15T01:49:20;8.30;85.90
68766;DHT22;55756;45.582;11.484;2022-11-15T01:52:10;8.30;85.80
68766;DHT22;55756;45.582;11.484;2022-11-15T01:55:18;8.40;85.70
68766;DHT22;55756;45.582;11.484;2022-11-15T01:58:04;8.30;85.70
68766;DHT22;55756;45.582;11.484;2022-11-15T02:00:50;8.30;85.80
68766;DHT22;55756;45.582;11.484;2022-11-15T02:03:52;8.30;85.70
68766;DHT22;55756;45.582;11.484;2022-11-15T02:06:39;8.30;85.40
68766;DHT22;55756;45.582;11.484;2022-11-15T02:09:23;8.10;85.80
68766;DHT22;55756;45.582;11.484;2022-11-15T02:12:09;8.00;86.60
68766;DHT22;55756;45.582;11.484;2022-11-15T02:14:55;7.70;86.70
68766;DHT22;55756;45.582;11.484;2022-11-15T02:27:24;7.70;88.20
68766;DHT22;55756;45.582;11.484;2022-11-15T02:30:35;7.80;88.10
68766;DHT22;55756;45.582;11.484;2022-11-15T02:39:51;7.80;87.70
68766;DHT22;55756;45.582;11.484;2022-11-15T02:43:08;7.80;87.90
68766;DHT22;55756;45.582;11.484;2022-11-15T02:46:21;7.80;88.00
68766;DHT22;55756;45.582;11.484;2022-11-15T02:49:06;7.90;87.90
68766;DHT22;55756;45.582;11.484;2022-11-15T02:51:52;7.80;87.90
68766;DHT22;55756;45.582;11.484;2022-11-15T02:54:36;7.90;87.90
68766;DHT22;55756;45.582;11.484;2022-11-15T03:00:23;7.90;87.50
68766;DHT22;55756;45.582;11.484;2022-11-15T03:06:35;7.70;86.70
68766;DHT22;55756;45.582;11.484;2022-11-15T03:09:35;7.70;87.00
68766;DHT22;55756;45.582;11.484;2022-11-15T03:12:33;7.70;86.70
68766;DHT22;55756;45.582;11.484;2022-11-15T03:15:23;7.70;86.70
68766;DHT22;55756;45.582;11.484;2022-11-15T03:18:18;7.70;86.70
68766;DHT22;55756;45.582;11.484;2022-11-15T03:21:06;7.70;86.70
68766;DHT22;55756;45.582;11.484;2022-11-15T03:23:52;7.80;86.60
68766;DHT22;55756;45.582;11.484;2022-11-15T03:26:40;7.90;86.60
68766;DHT22;55756;45.582;11.484;2022-11-15T03:29:29;7.90;86.30
68766;DHT22;55756;45.582;11.484;2022-11-15T03:32:20;7.90;86.50
68766;DHT22;55756;45.582;11.484;2022-11-15T03:35:18;8.00;86.50
68766;DHT22;55756;45.582;11.484;2022-11-15T03:38:30;8.00;86.50
68766;DHT22;55756;45.582;11.484;2022-11-15T03:41:25;8.00;86.30
68766;DHT22;55756;45.582;11.484;2022-11-15T03:44:45;8.00;86.50
68766;DHT22;55756;45.582;11.484;2022-11-15T03:47:35;8.00;86.40
68766;DHT22;55756;45.582;11.484;2022-11-15T03:50:22;8.00;86.60
68766;DHT22;55756;45.582;11.484;2022-11-15T03:53:08;8.00;86.50
68766;DHT22;55756;45.582;11.484;2022-11-15T03:55:53;7.90;86.30
68766;DHT22;55756;45.582;11.484;2022-11-15T03:58:37;7.90;86.60
68766;DHT22;55756;45.582;11.484;2022-11-15T04:01:21;7.80;86.70
68766;DHT22;55756;45.582;11.484;2022-11-15T04:04:05;7.60;87.50
68766;DHT22;55756;45.582;11.484;2022-11-15T04:06:50;7.60;87.90
68766;DHT22;55756;45.582;11.484;2022-11-15T04:09:34;7.50;88.90
68766;DHT22;55756;45.582;11.484;2022-11-15T04:12:40;7.40;89.00
68766;DHT22;55756;45.582;11.484;2022-11-15T04:15:27;7.30;88.70
68766;DHT22;55756;45.582;11.484;2022-11-15T04:18:12;7.20;88.70
68766;DHT22;55756;45.582;11.484;2022-11-15T04:20:57;7.30;88.20
68766;DHT22;55756;45.582;11.484;2022-11-15T04:24:00;7.10;88.50
68766;DHT22;55756;45.582;11.484;2022-11-15T04:26:56;6.90;88.50
68766;DHT22;55756;45.582;11.484;2022-11-15T04:29:41;7.00;88.20
68766;DHT22;55756;45.582;11.484;2022-11-15T04:32:25;7.00;87.90
68766;DHT22;55756;45.582;11.484;2022-11-15T04:35:09;6.90;88.30
68766;DHT22;55756;45.582;11.484;2022-11-15T04:37:55;6.80;88.30
68766;DHT22;55756;45.582;11.484;2022-11-15T04:40:39;6.80;87.80
68766;DHT22;55756;45.582;11.484;2022-11-15T04:43:23;6.70;88.50
68766;DHT22;55756;45.582;11.484;2022-11-15T04:46:07;6.80;88.60
68766;DHT22;55756;45.582;11.484;2022-11-15T04:48:52;6.90;88.60
68766;DHT22;55756;45.582;11.484;2022-11-15T04:51:36;6.80;88.70
68766;DHT22;55756;45.582;11.484;2022-11-15T04:54:20;6.80;88.70
68766;DHT22;55756;45.582;11.484;2022-11-15T04:57:05;6.90;88.40
68766;DHT22;55756;45.582;11.484;2022-11-15T04:59:50;7.00;88.10
68766;DHT22;55756;45.582;11.484;2022-11-15T05:02:34;7.00;88.00
68766;DHT22;55756;45.582;11.484;2022-11-15T05:05:37;7.00;87.70
68766;DHT22;55756;45.582;11.484;2022-11-15T05:08:22;7.00;87.60
68766;DHT22;55756;45.582;11.484;2022-11-15T05:11:06;6.80;87.70
68766;DHT22;55756;45.582;11.484;2022-11-15T05:13:50;6.80;88.20
68766;DHT22;55756;45.582;11.484;2022-11-15T05:16:34;6.90;87.80
68766;DHT22;55756;45.582;11.484;2022-11-15T05:19:20;6.90;88.20
68766;DHT22;55756;45.582;11.484;2022-11-15T05:22:04;7.00;87.90
68766;DHT22;55756;45.582;11.484;2022-11-15T05:24:48;7.10;87.80
68766;DHT22;55756;45.582;11.484;2022-11-15T05:27:34;7.00;87.50
68766;DHT22;55756;45.582;11.484;2022-11-15T05:30:18;7.00;87.80
68766;DHT22;55756;45.582;11.484;2022-11-15T05:33:03;7.00;88.00
68766;DHT22;55756;45.582;11.484;2022-11-15T05:35:54;7.10;88.00
68766;DHT22;55756;45.582;11.484;2022-11-15T05:38:39;7.10;88.00
68766;DHT22;55756;45.582;11.484;2022-11-15T05:41:47;7.20;87.80
68766;DHT22;55756;45.582;11.484;2022-11-15T05:44:33;7.20;87.80
68766;DHT22;55756;45.582;11.484;2022-11-15T05:47:22;7.20;87.80
68766;DHT22;55756;45.582;11.484;2022-11-15T05:50:11;7.20;87.60
68766;DHT22;55756;45.582;11.484;2022-11-15T05:52:56;7.20;87.50
68766;DHT22;55756;45.582;11.484;2022-11-15T05:55:41;7.20;87.30
68766;DHT22;55756;45.582;11.484;2022-11-15T05:58:25;7.10;87.40
68766;DHT22;55756;45.582;11.484;2022-11-15T06:01:09;7.10;87.20
68766;DHT22;55756;45.582;11.484;2022-11-15T06:03:54;7.10;87.20
68766;DHT22;55756;45.582;11.484;2022-11-15T06:06:38;7.10;87.40
68766;DHT22;55756;45.582;11.484;2022-11-15T06:09:23;7.10;87.50
68766;DHT22;55756;45.582;11.484;2022-11-15T06:12:07;7.10;87.60
68766;DHT22;55756;45.582;11.484;2022-11-15T06:14:51;7.10;87.70
68766;DHT22;55756;45.582;11.484;2022-11-15T06:17:36;7.10;87.60
68766;DHT22;55756;45.582;11.484;2022-11-15T06:20:20;7.00;87.40
68766;DHT22;55756;45.582;11.484;2022-11-15T06:23:04;7.00;87.50
68766;DHT22;55756;45.582;11.484;2022-11-15T06:25:49;7.10;87.20
68766;DHT22;55756;45.582;11.484;2022-11-15T06:28:33;7.10;87.10
68766;DHT22;55756;45.582;11.484;2022-11-15T06:31:18;7.10;87.00
68766;DHT22;55756;45.582;11.484;2022-11-15T06:34:02;7.10;87.00
68766;DHT22;55756;45.582;11.484;2022-11-15T06:36:46;7.20;86.90
68766;DHT22;55756;45.582;11.484;2022-11-15T06:39:31;7.20;86.70
68766;DHT22;55756;45.582;11.484;2022-11-15T06:42:15;7.20;86.70
68766;DHT22;55756;45.582;11.484;2022-11-15T06:44:59;7.20;86.60
68766;DHT22;55756;45.582;11.484;2022-11-15T06:47:45;7.30;86.30
68766;DHT22;55756;45.582;11.484;2022-11-15T06:50:30;7.30;86.20
68766;DHT22;55756;45.582;11.484;2022-11-15T06:53:14;7.40;85.90
68766;DHT22;55756;45.582;11.484;2022-11-15T06:56:04;7.40;86.00
68766;DHT22;55756;45.582;11.484;2022-11-15T06:58:49;7.60;85.60
68766;DHT22;55756;45.582;11.484;2022-11-15T07:01:33;7.60;85.20
68766;DHT22;55756;45.582;11.484;2022-11-15T07:04:17;7.70;84.90
68766;DHT22;55756;45.582;11.484;2022-11-15T07:07:02;7.90;84.50
68766;DHT22;55756;45.582;11.484;2022-11-15T07:09:46;8.00;83.80
68766;DHT22;55756;45.582;11.484;2022-11-15T07:12:31;7.80;83.40
68766;DHT22;55756;45.582;11.484;2022-11-15T07:15:17;7.70;83.70
68766;DHT22;55756;45.582;11.484;2022-11-15T07:18:02;7.60;83.40
68766;DHT22;55756;45.582;11.484;2022-11-15T07:20:46;7.60;83.40
68766;DHT22;55756;45.582;11.484;2022-11-15T07:23:31;7.80;83.20
68766;DHT22;55756;45.582;11.484;2022-11-15T07:26:16;8.10;83.00
68766;DHT22;55756;45.582;11.484;2022-11-15T07:29:00;8.40;82.20
68766;DHT22;55756;45.582;11.484;2022-11-15T07:31:44;8.40;81.50
68766;DHT22;55756;45.582;11.484;2022-11-15T07:34:28;8.80;81.10
68766;DHT22;55756;45.582;11.484;2022-11-15T07:37:12;9.20;79.40
68766;DHT22;55756;45.582;11.484;2022-11-15T07:39:57;9.10;78.60
68766;DHT22;55756;45.582;11.484;2022-11-15T07:42:42;9.10;78.50
68766;DHT22;55756;45.582;11.484;2022-11-15T07:45:45;9.30;78.40
68766;DHT22;55756;45.582;11.484;2022-11-15T07:48:30;9.40;77.70
68766;DHT22;55756;45.582;11.484;2022-11-15T07:51:15;9.30;77.50
68766;DHT22;55756;45.582;11.484;2022-11-15T07:54:00;9.20;77.80
68766;DHT22;55756;45.582;11.484;2022-11-15T07:56:45;9.30;77.70
68766;DHT22;55756;45.582;11.484;2022-11-15T07:59:29;9.30;77.60
68766;DHT22;55756;45.582;11.484;2022-11-15T08:02:13;9.40;77.80
68766;DHT22;55756;45.582;11.484;2022-11-15T08:05:00;9.50;77.70
68766;DHT22;55756;45.582;11.484;2022-11-15T08:07:45;9.50;77.80
68766;DHT22;55756;45.582;11.484;2022-11-15T08:10:29;9.50;77.80
68766;DHT22;55756;45.582;11.484;2022-11-15T08:13:15;9.50;77.90
68766;DHT22;55756;45.582;11.484;2022-11-15T08:16:00;9.50;78.30
68766;DHT22;55756;45.582;11.484;2022-11-15T08:18:45;10.00;78.40
68766;DHT22;55756;45.582;11.484;2022-11-15T08:21:30;10.30;76.90
68766;DHT22;55756;45.582;11.484;2022-11-15T08:24:15;10.40;76.90
68766;DHT22;55756;45.582;11.484;2022-11-15T08:27:00;10.60;76.40
68766;DHT22;55756;45.582;11.484;2022-11-15T08:29:45;10.60;76.20
68766;DHT22;55756;45.582;11.484;2022-11-15T08:32:31;10.50;76.00
68766;DHT22;55756;45.582;11.484;2022-11-15T08:35:16;10.60;76.10
68766;DHT22;55756;45.582;11.484;2022-11-15T08:38:00;10.80;76.30
68766;DHT22;55756;45.582;11.484;2022-11-15T08:40:44;10.90;75.70
68766;DHT22;55756;45.582;11.484;2022-11-15T08:43:29;11.00;75.40
68766;DHT22;55756;45.582;11.484;2022-11-15T08:46:13;11.00;75.50
68766;DHT22;55756;45.582;11.484;2022-11-15T08:48:58;11.00;75.50
68766;DHT22;55756;45.582;11.484;2022-11-15T08:51:43;10.90;75.70
68766;DHT22;55756;45.582;11.484;2022-11-15T08:54:27;10.80;75.60
68766;DHT22;55756;45.582;11.484;2022-11-15T08:57:12;10.70;75.90
68766;DHT22;55756;45.582;11.484;2022-11-15T08:59:57;10.70;76.20
68766;DHT22;55756;45.582;11.484;2022-11-15T09:02:41;10.60;76.60
68766;DHT22;55756;45.582;11.484;2022-11-15T09:05:26;10.50;77.30
68766;DHT22;55756;45.582;11.484;2022-11-15T09:08:10;10.50;78.00
68766;DHT22;55756;45.582;11.484;2022-11-15T09:10:55;10.50;78.40
68766;DHT22;55756;45.582;11.484;2022-11-15T09:13:40;10.40;78.70
68766;DHT22;55756;45.582;11.484;2022-11-15T09:16:24;10.50;79.10
68766;DHT22;55756;45.582;11.484;2022-11-15T09:19:09;10.50;79.10
68766;DHT22;55756;45.582;11.484;2022-11-15T09:21:53;10.50;79.50
68766;DHT22;55756;45.582;11.484;2022-11-15T09:24:38;10.50;79.50
68766;DHT22;55756;45.582;11.484;2022-11-15T09:27:23;10.50;79.80
68766;DHT22;55756;45.582;11.484;2022-11-15T09:30:11;10.60;79.80
68766;DHT22;55756;45.582;11.484;2022-11-15T09:32:55;10.70;79.70
68766;DHT22;55756;45.582;11.484;2022-11-15T09:35:39;10.90;79.70
68766;DHT22;55756;45.582;11.484;2022-11-15T09:38:24;11.10;79.30
68766;DHT22;55756;45.582;11.484;2022-11-15T09:44:17;11.40;78.70
68766;DHT22;55756;45.582;11.484;2022-11-15T09:53:04;11.60;78.10
68766;DHT22;55756;45.582;11.484;2022-11-15T09:55:53;11.80;78.00
68766;DHT22;55756;45.582;11.484;2022-11-15T09:58:26;11.90;77.00
68766;DHT22;55756;45.582;11.484;2022-11-15T10:00:58;11.90;76.90
68766;DHT22;55756;45.582;11.484;2022-11-15T10:03:37;12.00;76.60
68766;DHT22;55756;45.582;11.484;2022-11-15T10:06:05;12.10;76.10
68766;DHT22;55756;45.582;11.484;2022-11-15T10:11:01;12.50;75.00
68766;DHT22;55756;45.582;11.484;2022-11-15T10:13:34;12.70;74.70
68766;DHT22;55756;45.582;11.484;2022-11-15T10:24:28;13.40;73.00
68766;DHT22;55756;45.582;11.484;2022-11-15T10:26:57;13.50;72.80
68766;DHT22;55756;45.582;11.484;2022-11-15T10:29:24;13.50;72.70
68766;DHT22;55756;45.582;11.484;2022-11-15T10:31:50;13.50;73.00
68766;DHT22;55756;45.582;11.484;2022-11-15T10:34:22;13.40;73.00
68766;DHT22;55756;45.582;11.484;2022-11-15T10:36:59;13.30;73.20
68766;DHT22;55756;45.582;11.484;2022-11-15T10:39:26;13.20;73.10
68766;DHT22;55756;45.582;11.484;2022-11-15T10:41:52;13.20;73.30
68766;DHT22;55756;45.582;11.484;2022-11-15T10:47:20;13.10;73.90
68766;DHT22;55756;45.582;11.484;2022-11-15T10:49:33;13.00;74.10
68766;DHT22;55756;45.582;11.484;2022-11-15T10:52:15;13.00;74.10
68766;DHT22;55756;45.582;11.484;2022-11-15T10:54:43;12.90;74.50
68766;DHT22;55756;45.582;11.484;2022-11-15T10:57:24;12.80;75.10
68766;DHT22;55756;45.582;11.484;2022-11-15T10:59:57;12.90;75.50
68766;DHT22;55756;45.582;11.484;2022-11-15T11:02:37;12.90;75.60
68766;DHT22;55756;45.582;11.484;2022-11-15T11:05:22;13.00;75.50
68766;DHT22;55756;45.582;11.484;2022-11-15T11:08:03;13.10;75.60
68766;DHT22;55756;45.582;11.484;2022-11-15T11:10:29;13.20;75.50
68766;DHT22;55756;45.582;11.484;2022-11-15T11:12:55;13.20;75.30
68766;DHT22;55756;45.582;11.484;2022-11-15T11:15:24;13.20;75.10
68766;DHT22;55756;45.582;11.484;2022-11-15T11:18:14;13.20;74.80
68766;DHT22;55756;45.582;11.484;2022-11-15T11:20:45;13.10;74.50
68766;DHT22;55756;45.582;11.484;2022-11-15T11:28:58;13.00;75.00
68766;DHT22;55756;45.582;11.484;2022-11-15T11:34:26;13.20;74.50
68766;DHT22;55756;45.582;11.484;2022-11-15T11:37:14;13.20;74.70
68766;DHT22;55756;45.582;11.484;2022-11-15T11:50:34;13.00;75.50
68766;DHT22;55756;45.582;11.484;2022-11-15T11:59:23;13.00;76.50
68766;DHT22;55756;45.582;11.484;2022-11-15T12:01:51;13.00;76.90
68766;DHT22;55756;45.582;11.484;2022-11-15T12:04:37;13.00;76.90
68766;DHT22;55756;45.582;11.484;2022-11-15T12:07:21;13.00;76.90
68766;DHT22;55756;45.582;11.484;2022-11-15T12:09:58;13.10;76.80
68766;DHT22;55756;45.582;11.484;2022-11-15T12:12:27;13.10;77.00
68766;DHT22;55756;45.582;11.484;2022-11-15T12:15:00;13.00;76.90
68766;DHT22;55756;45.582;11.484;2022-11-15T12:17:31;13.00;77.10
68766;DHT22;55756;45.582;11.484;2022-11-15T12:20:03;13.00;77.10
68766;DHT22;55756;45.582;11.484;2022-11-15T12:22:52;13.00;76.90
68766;DHT22;55756;45.582;11.484;2022-11-15T12:25:29;13.00;76.80
68766;DHT22;55756;45.582;11.484;2022-11-15T12:28:01;12.90;76.80
68766;DHT22;55756;45.582;11.484;2022-11-15T12:36:10;13.00;76.90
68766;DHT22;55756;45.582;11.484;2022-11-15T12:38:59;13.00;77.00
68766;DHT22;55756;45.582;11.484;2022-11-15T12:41:27;13.00;77.20
68766;DHT22;55756;45.582;11.484;2022-11-15T12:43:54;13.00;77.30
68766;DHT22;55756;45.582;11.484;2022-11-15T12:49:41;13.00;77.20
68766;DHT22;55756;45.582;11.484;2022-11-15T12:52:08;13.00;77.30
68766;DHT22;55756;45.582;11.484;2022-11-15T12:59:55;13.00;77.80
68766;DHT22;55756;45.582;11.484;2022-11-15T13:02:38;13.00;77.90
68766;DHT22;55756;45.582;11.484;2022-11-15T13:10:28;13.10;78.80
68766;DHT22;55756;45.582;11.484;2022-11-15T13:13:00;13.10;78.70
68766;DHT22;55756;45.582;11.484;2022-11-15T13:15:36;13.00;78.50
68766;DHT22;55756;45.582;11.484;2022-11-15T13:18:26;12.90;78.70
68766;DHT22;55756;45.582;11.484;2022-11-15T13:20:53;12.90;78.90
68766;DHT22;55756;45.582;11.484;2022-11-15T13:23:21;12.90;79.00
68766;DHT22;55756;45.582;11.484;2022-11-15T13:26:08;12.80;79.20
68766;DHT22;55756;45.582;11.484;2022-11-15T13:31:27;12.80;79.60
68766;DHT22;55756;45.582;11.484;2022-11-15T13:34:22;12.80;79.60
68766;DHT22;55756;45.582;11.484;2022-11-15T13:36:41;12.80;79.70
68766;DHT22;55756;45.582;11.484;2022-11-15T13:39:27;12.80;79.70
68766;DHT22;55756;45.582;11.484;2022-11-15T13:41:53;12.70;79.90
68766;DHT22;55756;45.582;11.484;2022-11-15T13:44:24;12.70;80.30
68766;DHT22;55756;45.582;11.484;2022-11-15T13:47:14;12.70;80.40
68766;DHT22;55756;45.582;11.484;2022-11-15T13:49:41;12.80;80.50
68766;DHT22;55756;45.582;11.484;2022-11-15T13:52:10;12.80;80.40
68766;DHT22;55756;45.582;11.484;2022-11-15T13:55:04;12.70;80.30
68766;DHT22;55756;45.582;11.484;2022-11-15T13:57:52;12.70;80.60
68766;DHT22;55756;45.582;11.484;2022-11-15T14:03:27;12.70;80.60
68766;DHT22;55756;45.582;11.484;2022-11-15T14:06:03;12.70;80.50
68766;DHT22;55756;45.582;11.484;2022-11-15T14:08:29;12.70;80.50
68766;DHT22;55756;45.582;11.484;2022-11-15T14:11:18;12.70;80.50
68766;DHT22;55756;45.582;11.484;2022-11-15T14:19:05;12.60;80.80
68766;DHT22;55756;45.582;11.484;2022-11-15T14:21:32;12.60;80.80
68766;DHT22;55756;45.582;11.484;2022-11-15T14:24:17;12.60;81.00
68766;DHT22;55756;45.582;11.484;2022-11-15T14:26:43;12.60;81.10
68766;DHT22;55756;45.582;11.484;2022-11-15T14:31:52;12.60;81.40
68766;DHT22;55756;45.582;11.484;2022-11-15T14:34:19;12.50;81.50
68766;DHT22;55756;45.582;11.484;2022-11-15T14:36:47;12.50;81.60
68766;DHT22;55756;45.582;11.484;2022-11-15T14:39:13;12.50;81.70
68766;DHT22;55756;45.582;11.484;2022-11-15T14:41:39;12.50;81.70
68766;DHT22;55756;45.582;11.484;2022-11-15T14:44:05;12.50;81.80
68766;DHT22;55756;45.582;11.484;2022-11-15T14:46:31;12.40;81.60
68766;DHT22;55756;45.582;11.484;2022-11-15T14:48:58;12.40;81.50
68766;DHT22;55756;45.582;11.484;2022-11-15T14:51:24;12.40;81.30
68766;DHT22;55756;45.582;11.484;2022-11-15T14:53:49;12.40;81.30
68766;DHT22;55756;45.582;11.484;2022-11-15T14:56:17;12.40;81.30
68766;DHT22;55756;45.582;11.484;2022-11-15T14:58:43;12.40;81.30
68766;DHT22;55756;45.582;11.484;2022-11-15T15:01:19;12.30;81.50
68766;DHT22;55756;45.582;11.484;2022-11-15T15:03:46;12.30;81.70
68766;DHT22;55756;45.582;11.484;2022-11-15T15:06:12;12.30;81.80
68766;DHT22;55756;45.582;11.484;2022-11-15T15:08:40;12.30;81.90
68766;DHT22;55756;45.582;11.484;2022-11-15T15:11:35;12.20;81.60
68766;DHT22;55756;45.582;11.484;2022-11-15T15:14:01;12.20;81.30
68766;DHT22;55756;45.582;11.484;2022-11-15T15:16:27;12.20;81.40
68766;DHT22;55756;45.582;11.484;2022-11-15T15:18:53;12.20;81.50
68766;DHT22;55756;45.582;11.484;2022-11-15T15:21:27;12.10;81.60
68766;DHT22;55756;45.582;11.484;2022-11-15T15:23:53;12.10;81.50
68766;DHT22;55756;45.582;11.484;2022-11-15T15:26:20;12.20;81.50
68766;DHT22;55756;45.582;11.484;2022-11-15T15:28:46;12.10;81.70
68766;DHT22;55756;45.582;11.484;2022-11-15T15:31:14;12.10;81.50
68766;DHT22;55756;45.582;11.484;2022-11-15T15:33:40;12.00;81.80
68766;DHT22;55756;45.582;11.484;2022-11-15T15:36:11;12.00;82.10
68766;DHT22;55756;45.582;11.484;2022-11-15T15:38:38;12.00;82.30
68766;DHT22;55756;45.582;11.484;2022-11-15T15:41:09;11.90;82.40
68766;DHT22;55756;45.582;11.484;2022-11-15T15:43:35;11.90;82.70
68766;DHT22;55756;45.582;11.484;2022-11-15T15:46:01;11.90;82.80
68766;DHT22;55756;45.582;11.484;2022-11-15T15:48:27;11.90;83.00
68766;DHT22;55756;45.582;11.484;2022-11-15T15:50:53;11.90;82.90
68766;DHT22;55756;45.582;11.484;2022-11-15T15:53:19;11.90;82.90
68766;DHT22;55756;45.582;11.484;2022-11-15T15:55:45;11.80;83.10
68766;DHT22;55756;45.582;11.484;2022-11-15T15:58:10;11.80;83.20
68766;DHT22;55756;45.582;11.484;2022-11-15T16:00:36;11.80;83.20
68766;DHT22;55756;45.582;11.484;2022-11-15T16:03:02;11.70;83.20
68766;DHT22;55756;45.582;11.484;2022-11-15T16:05:28;11.70;83.40
68766;DHT22;55756;45.582;11.484;2022-11-15T16:07:54;11.70;83.20
68766;DHT22;55756;45.582;11.484;2022-11-15T16:12:51;11.80;83.30
68766;DHT22;55756;45.582;11.484;2022-11-15T16:15:18;11.80;83.40
68766;DHT22;55756;45.582;11.484;2022-11-15T16:17:48;11.80;83.40
68766;DHT22;55756;45.582;11.484;2022-11-15T16:20:45;11.80;83.50
68766;DHT22;55756;45.582;11.484;2022-11-15T16:23:14;11.80;83.60
68766;DHT22;55756;45.582;11.484;2022-11-15T16:30:42;11.90;83.40
68766;DHT22;55756;45.582;11.484;2022-11-15T16:33:08;11.90;83.40
68766;DHT22;55756;45.582;11.484;2022-11-15T16:35:34;11.80;83.40
68766;DHT22;55756;45.582;11.484;2022-11-15T16:38:00;11.80;83.60
68766;DHT22;55756;45.582;11.484;2022-11-15T16:40:27;11.80;83.60
68766;DHT22;55756;45.582;11.484;2022-11-15T16:42:53;11.80;83.60
68766;DHT22;55756;45.582;11.484;2022-11-15T16:45:21;11.80;83.40
68766;DHT22;55756;45.582;11.484;2022-11-15T16:47:47;11.80;83.50
68766;DHT22;55756;45.582;11.484;2022-11-15T16:50:24;11.80;83.60
68766;DHT22;55756;45.582;11.484;2022-11-15T16:52:54;11.70;83.70
68766;DHT22;55756;45.582;11.484;2022-11-15T16:55:23;11.70;84.30
68766;DHT22;55756;45.582;11.484;2022-11-15T16:57:49;11.80;84.30
68766;DHT22;55756;45.582;11.484;2022-11-15T17:00:16;11.80;84.40
68766;DHT22;55756;45.582;11.484;2022-11-15T17:02:43;11.80;84.40
68766;DHT22;55756;45.582;11.484;2022-11-15T17:05:10;11.80;84.50
68766;DHT22;55756;45.582;11.484;2022-11-15T17:07:35;11.80;84.60
68766;DHT22;55756;45.582;11.484;2022-11-15T17:10:01;11.80;84.70
68766;DHT22;55756;45.582;11.484;2022-11-15T17:12:27;11.80;84.70
68766;DHT22;55756;45.582;11.484;2022-11-15T17:14:55;11.80;84.90
68766;DHT22;55756;45.582;11.484;2022-11-15T17:17:22;11.80;84.70
68766;DHT22;55756;45.582;11.484;2022-11-15T17:19:47;11.80;84.80
68766;DHT22;55756;45.582;11.484;2022-11-15T17:22:13;11.80;84.80
68766;DHT22;55756;45.582;11.484;2022-11-15T17:24:39;11.80;84.90
68766;DHT22;55756;45.582;11.484;2022-11-15T17:27:05;11.80;84.80
68766;DHT22;55756;45.582;11.484;2022-11-15T17:29:31;11.80;84.90
68766;DHT22;55756;45.582;11.484;2022-11-15T17:31:56;11.80;85.20
68766;DHT22;55756;45.582;11.484;2022-11-15T17:34:22;11.80;85.20
68766;DHT22;55756;45.582;11.484;2022-11-15T17:36:48;11.80;85.30
68766;DHT22;55756;45.582;11.484;2022-11-15T17:39:14;11.80;85.30
68766;DHT22;55756;45.582;11.484;2022-11-15T17:41:40;11.80;85.30
68766;DHT22;55756;45.582;11.484;2022-11-15T17:44:05;11.80;85.30
68766;DHT22;55756;45.582;11.484;2022-11-15T17:46:31;11.80;85.30
68766;DHT22;55756;45.582;11.484;2022-11-15T17:48:59;11.80;85.30
68766;DHT22;55756;45.582;11.484;2022-11-15T17:51:25;11.80;85.30
68766;DHT22;55756;45.582;11.484;2022-11-15T17:53:51;11.80;85.20
68766;DHT22;55756;45.582;11.484;2022-11-15T17:56:21;11.80;85.10
68766;DHT22;55756;45.582;11.484;2022-11-15T17:58:53;11.80;85.30
68766;DHT22;55756;45.582;11.484;2022-11-15T18:01:25;11.80;85.20
68766;DHT22;55756;45.582;11.484;2022-11-15T18:03:52;11.80;85.30
68766;DHT22;55756;45.582;11.484;2022-11-15T18:06:19;11.80;85.30
68766;DHT22;55756;45.582;11.484;2022-11-15T18:08:47;11.80;85.20
68766;DHT22;55756;45.582;11.484;2022-11-15T18:11:25;11.80;85.40
68766;DHT22;55756;45.582;11.484;2022-11-15T18:13:53;11.80;85.20
68766;DHT22;55756;45.582;11.484;2022-11-15T18:16:22;11.80;85.40
68766;DHT22;55756;45.582;11.484;2022-11-15T18:18:50;11.80;85.40
68766;DHT22;55756;45.582;11.484;2022-11-15T18:21:17;11.80;85.30
68766;DHT22;55756;45.582;11.484;2022-11-15T18:23:45;11.80;85.40
68766;DHT22;55756;45.582;11.484;2022-11-15T18:26:13;11.80;85.50
68766;DHT22;55756;45.582;11.484;2022-11-15T18:28:40;11.80;85.50
68766;DHT22;55756;45.582;11.484;2022-11-15T18:31:15;11.80;85.40